Time,TemperatureF,DewpointF,PressureIn,WindDirection,WindDirectionDegrees,WindSpeedMPH,WindSpeedGustMPH,Humidity,HourlyPrecipIn,Conditions,Clouds,dailyrainin,SolarRadiationWatts/m^2,SoftwareType,DateUTC
2013-04-18 08:11:00,59.7,57.7,30.17,East,94,3.0,3.0,93,0.00,,,0.00,1385,Wunderground v.1.15,2013-04-18 12:11:00,
2013-04-18 08:12:00,59.6,57.6,30.17,East,96,3.0,3.0,93,0.00,,,0.00,1383,Wunderground v.1.15,2013-04-18 12:12:00,
2013-04-18 08:14:00,59.7,57.7,30.17,East,100,3.0,6.0,93,0.00,,,0.00,1383,Wunderground v.1.15,2013-04-18 12:14:00,
2013-04-18 08:19:00,59.7,57.7,30.17,ESE,111,4.0,8.0,93,0.00,,,0.00,1380,Wunderground v.1.15,2013-04-18 12:19:00,
2013-04-18 08:20:00,59.7,57.7,30.16,ESE,111,4.0,8.0,93,0.00,,,0.00,1380,Wunderground v.1.15,2013-04-18 12:20:00,
2013-04-18 08:25:00,59.8,57.8,30.17,East,91,4.0,8.0,93,0.00,,,0.00,1378,Wunderground v.1.15,2013-04-18 12:25:00,
2013-04-18 08:29:00,59.9,57.9,30.17,ESE,111,5.0,8.0,93,0.00,,,0.00,1376,Wunderground v.1.15,2013-04-18 12:29:00,
2013-04-18 08:34:00,60.1,58.1,30.17,SE,140,4.0,5.0,93,0.00,,,0.00,1375,Wunderground v.1.15,2013-04-18 12:34:00,
2013-04-18 08:40:00,60.2,57.9,30.18,SE,141,3.0,5.0,92,0.00,,,0.00,1373,Wunderground v.1.15,2013-04-18 12:40:00,
2013-04-18 08:46:00,60.3,58.0,30.17,SE,142,3.0,6.0,92,0.00,,,0.00,1373,Wunderground v.1.15,2013-04-18 12:46:00,
2013-04-18 08:51:00,60.4,58.1,30.17,SE,139,2.0,4.0,92,0.00,,,0.00,1373,Wunderground v.1.15,2013-04-18 12:51:00,
2013-04-18 08:57:00,60.6,58.3,30.17,SE,133,2.0,5.0,92,0.00,,,0.00,1371,Wunderground v.1.15,2013-04-18 12:57:00,
2013-04-18 09:03:00,60.9,58.6,30.17,ESE,119,3.0,4.0,92,0.00,,,0.00,1368,Wunderground v.1.15,2013-04-18 13:03:00,
2013-04-18 09:09:00,61.1,58.8,30.17,SE,129,2.0,4.0,92,0.00,,,0.00,1366,Wunderground v.1.15,2013-04-18 13:09:00,
2013-04-18 09:15:00,61.2,58.6,30.17,SSE,150,3.0,4.0,91,0.00,,,0.00,1362,Wunderground v.1.15,2013-04-18 13:15:00,
2013-04-18 09:20:00,61.2,58.6,30.17,SE,144,3.0,3.0,91,0.00,,,0.00,1364,Wunderground v.1.15,2013-04-18 13:20:00,
2013-04-18 09:26:00,61.1,58.5,30.17,SSE,149,3.0,4.0,91,0.00,,,0.00,1366,Wunderground v.1.15,2013-04-18 13:26:00,
2013-04-18 09:32:00,61.4,58.7,30.17,ESE,123,3.0,5.0,91,0.00,,,0.00,1369,Wunderground v.1.15,2013-04-18 13:32:00,
2013-04-18 09:38:00,61.7,58.7,30.17,ESE,106,3.0,5.0,90,0.00,,,0.00,1369,Wunderground v.1.15,2013-04-18 13:38:00,
2013-04-18 09:44:00,62.2,59.2,30.17,SSE,167,2.0,4.0,90,0.00,,,0.00,1368,Wunderground v.1.15,2013-04-18 13:44:00,
2013-04-18 09:50:00,62.3,59.3,30.17,ESE,117,2.0,4.0,90,0.00,,,0.00,1369,Wunderground v.1.15,2013-04-18 13:50:00,
2013-04-18 09:56:00,62.5,59.5,30.17,ESE,119,2.0,7.0,90,0.00,,,0.00,1373,Wunderground v.1.15,2013-04-18 13:56:00,
2013-04-18 10:02:00,62.8,59.5,30.16,SE,145,3.0,5.0,89,0.00,,,0.00,1375,Wunderground v.1.15,2013-04-18 14:02:00,
2013-04-18 10:07:00,62.9,59.6,30.16,ESE,115,4.0,5.0,89,0.00,,,0.00,1376,Wunderground v.1.15,2013-04-18 14:07:00,
2013-04-18 10:12:00,63.4,60.1,30.16,SE,136,5.0,6.0,89,0.00,,,0.00,1375,Wunderground v.1.15,2013-04-18 14:12:00,
2013-04-18 10:18:00,64.0,60.4,30.16,SE,125,4.0,6.0,88,0.00,,,0.00,1375,Wunderground v.1.15,2013-04-18 14:18:00,
2013-04-18 10:23:00,65.0,61.4,30.16,SE,129,4.0,7.0,88,0.00,,,0.00,1366,Wunderground v.1.15,2013-04-18 14:23:00,
2013-04-18 10:29:00,65.3,61.0,30.16,SSE,167,5.0,9.0,86,0.00,,,0.00,1359,Wunderground v.1.15,2013-04-18 14:29:00,
2013-04-18 10:34:00,65.7,61.4,30.16,ESE,111,5.0,8.0,86,0.00,,,0.00,1362,Wunderground v.1.15,2013-04-18 14:34:00,
2013-04-18 10:40:00,65.6,60.6,30.16,SE,141,5.0,5.0,84,0.00,,,0.00,1382,Wunderground v.1.15,2013-04-18 14:40:00,
2013-04-18 10:45:00,65.2,60.6,30.16,SE,136,4.0,5.0,85,0.00,,,0.00,1417,Wunderground v.1.15,2013-04-18 14:45:00,
2013-04-18 10:52:00,65.0,60.4,30.16,SE,133,4.0,6.0,85,0.00,,,0.00,1452,Wunderground v.1.15,2013-04-18 14:52:00,
2013-04-18 10:57:00,64.9,60.6,30.16,SE,125,4.0,6.0,86,0.00,,,0.00,1470,Wunderground v.1.15,2013-04-18 14:57:00,
2013-04-18 11:03:00,64.4,59.8,30.16,SSE,151,6.0,8.0,85,0.00,,,0.00,1482,Wunderground v.1.15,2013-04-18 15:03:00,
2013-04-18 11:09:00,64.0,59.7,30.16,SE,128,6.0,9.0,86,0.00,,,0.00,1496,Wunderground v.1.15,2013-04-18 15:09:00,
2013-04-18 11:14:00,64.3,60.7,30.16,SSE,148,5.0,6.0,88,0.00,,,0.00,1496,Wunderground v.1.15,2013-04-18 15:14:00,
2013-04-18 11:20:00,65.1,61.1,30.16,SSE,166,3.0,6.0,87,0.00,,,0.00,1482,Wunderground v.1.15,2013-04-18 15:20:00,
2013-04-18 11:25:00,65.4,60.8,30.16,SSE,149,4.0,7.0,85,0.00,,,0.00,1461,Wunderground v.1.15,2013-04-18 15:25:00,
2013-04-18 11:31:00,65.1,60.1,30.16,SSE,159,4.0,7.0,84,0.00,,,0.00,1455,Wunderground v.1.15,2013-04-18 15:31:00,
2013-04-18 11:37:00,64.3,59.7,30.16,ESE,111,5.0,9.0,85,0.00,,,0.00,1478,Wunderground v.1.15,2013-04-18 15:37:00,
2013-04-18 11:43:00,63.5,59.2,30.15,SE,124,4.0,5.0,86,0.00,,,0.00,1499,Wunderground v.1.15,2013-04-18 15:43:00,
2013-04-18 11:49:00,63.1,59.5,30.15,SE,142,4.0,5.0,88,0.00,,,0.00,,Wunderground v.1.15,2013-04-18 15:49:00,
2013-04-18 11:55:00,62.9,59.6,30.15,SE,129,3.0,5.0,89,0.00,,,0.00,,Wunderground v.1.15,2013-04-18 15:55:00,
2013-04-18 12:02:00,63.1,60.1,30.15,SE,129,2.0,4.0,90,0.00,,,0.00,,Wunderground v.1.15,2013-04-18 16:02:00,
2013-04-18 12:08:00,63.4,60.4,30.14,SSE,151,2.0,7.0,90,0.00,,,0.00,1487,Wunderground v.1.15,2013-04-18 16:08:00,
2013-04-18 12:13:00,63.6,60.3,30.14,SE,146,4.0,4.0,89,0.00,,,0.00,1471,Wunderground v.1.15,2013-04-18 16:13:00,
2013-04-18 12:19:00,63.5,60.5,30.14,SE,140,5.0,7.0,90,0.00,,,0.00,1452,Wunderground v.1.15,2013-04-18 16:19:00,
2013-04-18 12:25:00,63.6,60.6,30.14,SE,137,4.0,5.0,90,0.00,,,0.00,1445,Wunderground v.1.15,2013-04-18 16:25:00,
2013-04-18 12:30:00,63.9,60.9,30.13,SE,131,4.0,7.0,90,0.00,,,0.00,1438,Wunderground v.1.15,2013-04-18 16:30:00,
2013-04-18 12:35:00,64.9,62.2,30.13,SE,144,5.0,7.0,91,0.00,,,0.00,1424,Wunderground v.1.15,2013-04-18 16:35:00,
2013-04-18 12:41:00,65.5,62.2,30.13,SSE,152,5.0,8.0,89,0.00,,,0.00,1397,Wunderground v.1.15,2013-04-18 16:41:00,
2013-04-18 12:47:00,66.5,62.8,30.12,SE,140,4.0,8.0,88,0.00,,,0.00,1387,Wunderground v.1.15,2013-04-18 16:47:00,
2013-04-18 12:53:00,67.0,62.3,30.12,SSE,149,4.0,8.0,85,0.00,,,0.00,1392,Wunderground v.1.15,2013-04-18 16:53:00,
2013-04-18 12:59:00,67.4,63.4,30.12,SE,124,5.0,8.0,87,0.00,,,0.00,1419,Wunderground v.1.15,2013-04-18 16:59:00,
2013-04-18 13:05:00,67.4,63.1,30.11,ESE,110,5.0,8.0,86,0.00,,,0.00,1450,Wunderground v.1.15,2013-04-18 17:05:00,
2013-04-18 13:10:00,66.7,61.7,30.11,SSE,154,5.0,5.0,84,0.00,,,0.00,1480,Wunderground v.1.15,2013-04-18 17:10:00,
2013-04-18 13:16:00,66.1,61.5,30.11,ESE,110,5.0,9.0,85,0.00,,,0.00,,Wunderground v.1.15,2013-04-18 17:16:00,
2013-04-18 13:22:00,66.0,61.7,30.11,SSE,156,4.0,6.0,86,0.00,,,0.00,,Wunderground v.1.15,2013-04-18 17:22:00,
2013-04-18 13:27:00,66.4,62.1,30.10,SE,126,4.0,7.0,86,0.00,,,0.00,,Wunderground v.1.15,2013-04-18 17:27:00,
2013-04-18 13:32:00,66.7,62.4,30.10,SE,132,3.0,5.0,86,0.00,,,0.00,,Wunderground v.1.15,2013-04-18 17:32:00,
2013-04-18 13:37:00,67.0,62.3,30.10,ESE,113,3.0,8.0,85,0.00,,,0.00,,Wunderground v.1.15,2013-04-18 17:37:00,
2013-04-18 13:43:00,66.8,61.8,30.10,SSE,163,4.0,6.0,84,0.00,,,0.00,,Wunderground v.1.15,2013-04-18 17:43:00,
2013-04-18 13:49:00,66.9,61.9,30.10,ESE,115,5.0,9.0,84,0.00,,,0.00,,Wunderground v.1.15,2013-04-18 17:49:00,
2013-04-18 13:54:00,67.6,62.9,30.10,SSE,152,5.0,8.0,85,0.00,,,0.00,,Wunderground v.1.15,2013-04-18 17:54:00,
2013-04-18 14:00:00,68.4,63.7,30.09,ESE,115,5.0,5.0,85,0.00,,,0.00,1498,Wunderground v.1.15,2013-04-18 18:00:00,
2013-04-18 14:05:00,69.1,64.1,30.09,ESE,123,4.0,9.0,84,0.00,,,0.00,1487,Wunderground v.1.15,2013-04-18 18:05:00,
2013-04-18 14:11:00,69.8,64.1,30.08,SE,146,4.0,8.0,82,0.00,,,0.00,1484,Wunderground v.1.15,2013-04-18 18:11:00,
2013-04-18 14:16:00,69.9,64.2,30.08,SE,145,6.0,8.0,82,0.00,,,0.00,,Wunderground v.1.15,2013-04-18 18:16:00,
2013-04-18 14:21:00,70.1,64.3,30.08,ESE,118,6.0,11.0,82,0.00,,,0.00,,Wunderground v.1.15,2013-04-18 18:21:00,
2013-04-18 14:27:00,70.5,64.7,30.07,SE,127,6.0,11.0,82,0.00,,,0.00,,Wunderground v.1.15,2013-04-18 18:27:00,
2013-04-18 14:32:00,70.7,64.9,30.07,SE,134,6.0,14.0,82,0.00,,,0.00,,Wunderground v.1.15,2013-04-18 18:32:00,
2013-04-18 14:37:00,71.0,64.9,30.06,ESE,118,6.0,14.0,81,0.00,,,0.00,,Wunderground v.1.15,2013-04-18 18:37:00,
2013-04-18 14:43:00,70.8,64.3,30.06,ESE,119,6.0,8.0,80,0.00,,,0.00,,Wunderground v.1.15,2013-04-18 18:43:00,
2013-04-18 14:48:00,71.0,64.5,30.06,ESE,110,6.0,11.0,80,0.00,,,0.00,,Wunderground v.1.15,2013-04-18 18:48:00,
2013-04-18 14:54:00,71.5,65.0,30.05,ESE,121,6.0,11.0,80,0.00,,,0.00,,Wunderground v.1.15,2013-04-18 18:54:00,
2013-04-18 14:59:00,72.8,64.8,30.05,SE,128,6.0,12.0,76,0.00,,,0.00,,Wunderground v.1.15,2013-04-18 18:59:00,
2013-04-18 15:05:00,73.4,64.6,30.05,SE,137,7.0,14.0,74,0.00,,,0.00,,Wunderground v.1.15,2013-04-18 19:05:00,
2013-04-18 15:10:00,73.3,64.5,30.05,ESE,123,8.0,8.0,74,0.00,,,0.00,,Wunderground v.1.15,2013-04-18 19:10:00,
2013-04-18 15:16:00,73.0,64.2,30.04,SSE,154,9.0,11.0,74,0.00,,,0.00,,Wunderground v.1.15,2013-04-18 19:16:00,
2013-04-18 15:21:00,72.5,63.7,30.04,SE,131,8.0,10.0,74,0.00,,,0.00,,Wunderground v.1.15,2013-04-18 19:21:00,
2013-04-18 15:27:00,72.8,63.2,30.05,SSE,153,8.0,11.0,72,0.00,,,0.00,,Wunderground v.1.15,2013-04-18 19:27:00,
2013-04-18 15:32:00,72.9,63.7,30.05,SE,138,8.0,12.0,73,0.00,,,0.00,,Wunderground v.1.15,2013-04-18 19:32:00,
2013-04-18 15:38:00,72.9,62.5,30.04,SSE,163,6.0,12.0,70,0.00,,,0.00,,Wunderground v.1.15,2013-04-18 19:38:00,
2013-04-18 15:43:00,72.5,62.6,30.04,ESE,115,7.0,15.0,71,0.00,,,0.00,,Wunderground v.1.15,2013-04-18 19:43:00,
2013-04-18 15:49:00,72.1,62.2,30.04,SSE,149,7.0,15.0,71,0.00,,,0.00,,Wunderground v.1.15,2013-04-18 19:49:00,
2013-04-18 15:54:00,72.1,62.2,30.03,ESE,123,7.0,11.0,71,0.00,,,0.00,,Wunderground v.1.15,2013-04-18 19:54:00,
2013-04-18 16:00:00,72.2,62.7,30.04,SE,145,6.0,6.0,72,0.00,,,0.00,,Wunderground v.1.15,2013-04-18 20:00:00,
2013-04-18 16:05:00,72.2,62.7,30.03,SE,146,5.0,6.0,72,0.00,,,0.00,,Wunderground v.1.15,2013-04-18 20:05:00,
2013-04-18 16:10:00,72.2,62.7,30.03,SSE,151,6.0,6.0,72,0.00,,,0.00,,Wunderground v.1.15,2013-04-18 20:10:00,
2013-04-18 16:16:00,72.4,62.9,30.03,SE,144,5.0,12.0,72,0.00,,,0.00,,Wunderground v.1.15,2013-04-18 20:16:00,
2013-04-18 16:21:00,72.7,63.1,30.03,South,175,5.0,10.0,72,0.00,,,0.00,,Wunderground v.1.15,2013-04-18 20:21:00,
2013-04-18 16:26:00,73.0,63.4,30.03,SSE,155,5.0,10.0,72,0.00,,,0.00,,Wunderground v.1.15,2013-04-18 20:26:00,
2013-04-18 16:32:00,73.1,63.1,30.03,SSE,151,5.0,6.0,71,0.00,,,0.00,,Wunderground v.1.15,2013-04-18 20:32:00,
2013-04-18 16:38:00,73.2,63.2,30.02,SE,130,5.0,9.0,71,0.00,,,0.00,,Wunderground v.1.15,2013-04-18 20:38:00,
2013-04-18 16:43:00,73.3,63.3,30.02,SE,146,5.0,7.0,71,0.00,,,0.00,,Wunderground v.1.15,2013-04-18 20:43:00,
2013-04-18 16:48:00,73.4,63.8,30.02,SSE,150,6.0,8.0,72,0.00,,,0.00,,Wunderground v.1.15,2013-04-18 20:48:00,
2013-04-18 16:54:00,73.3,62.9,30.02,SE,140,5.0,14.0,70,0.00,,,0.00,,Wunderground v.1.15,2013-04-18 20:54:00,
2013-04-18 16:59:00,73.4,63.0,30.02,SSE,148,6.0,14.0,70,0.00,,,0.00,,Wunderground v.1.15,2013-04-18 20:59:00,
2013-04-18 17:05:00,73.2,62.8,30.02,SE,130,6.0,12.0,70,0.00,,,0.00,,Wunderground v.1.15,2013-04-18 21:05:00,
2013-04-18 17:11:00,73.1,62.7,30.02,SSE,153,6.0,7.0,70,0.00,,,0.00,,Wunderground v.1.15,2013-04-18 21:11:00,
2013-04-18 17:17:00,73.3,63.3,30.02,ESE,116,6.0,13.0,71,0.00,,,0.00,,Wunderground v.1.15,2013-04-18 21:17:00,
2013-04-18 17:22:00,73.5,63.1,30.02,SE,146,6.0,6.0,70,0.00,,,0.00,,Wunderground v.1.15,2013-04-18 21:22:00,
2013-04-18 17:28:00,73.5,63.5,30.01,SSE,160,5.0,6.0,71,0.00,,,0.00,,Wunderground v.1.15,2013-04-18 21:28:00,
2013-04-18 17:33:00,73.6,62.8,30.01,SSE,152,4.0,6.0,69,0.00,,,0.00,,Wunderground v.1.15,2013-04-18 21:33:00,
2013-04-18 17:39:00,73.6,63.2,30.01,SW,230,3.0,8.0,70,0.00,,,0.00,,Wunderground v.1.15,2013-04-18 21:39:00,
2013-04-18 17:45:00,73.5,62.7,30.01,SE,138,3.0,8.0,69,0.00,,,0.00,,Wunderground v.1.15,2013-04-18 21:45:00,
2013-04-18 17:50:00,73.5,62.7,30.01,SSE,148,5.0,5.0,69,0.00,,,0.00,,Wunderground v.1.15,2013-04-18 21:50:00,
2013-04-18 17:55:00,73.4,62.2,30.00,SE,125,5.0,6.0,68,0.00,,,0.00,,Wunderground v.1.15,2013-04-18 21:55:00,
2013-04-18 18:01:00,73.3,62.5,30.00,SSE,162,5.0,5.0,69,0.00,,,0.00,,Wunderground v.1.15,2013-04-18 22:01:00,
2013-04-18 18:06:00,73.4,62.6,30.00,SE,145,3.0,5.0,69,0.00,,,0.00,,Wunderground v.1.15,2013-04-18 22:06:00,
2013-04-18 18:12:00,73.8,62.6,30.00,SSE,167,3.0,9.0,68,0.00,,,0.00,,Wunderground v.1.15,2013-04-18 22:12:00,
2013-04-18 18:17:00,74.2,63.0,29.99,SSE,161,3.0,11.0,68,0.00,,,0.00,,Wunderground v.1.15,2013-04-18 22:17:00,
2013-04-18 18:23:00,74.4,63.1,29.99,SSE,155,3.0,6.0,68,0.00,,,0.00,,Wunderground v.1.15,2013-04-18 22:23:00,
2013-04-18 18:28:00,74.3,62.6,29.99,SSE,160,3.0,6.0,67,0.00,,,0.00,,Wunderground v.1.15,2013-04-18 22:28:00,
2013-04-18 18:33:00,74.0,62.3,29.99,SSE,156,4.0,7.0,67,0.00,,,0.00,,Wunderground v.1.15,2013-04-18 22:33:00,
2013-04-18 18:39:00,73.7,61.6,29.99,SE,139,5.0,7.0,66,0.00,,,0.00,,Wunderground v.1.15,2013-04-18 22:39:00,
2013-04-18 18:44:00,73.4,61.8,29.99,SSE,153,4.0,8.0,67,0.00,,,0.00,,Wunderground v.1.15,2013-04-18 22:44:00,
2013-04-18 18:50:00,73.2,61.6,29.99,SSE,153,3.0,3.0,67,0.00,,,0.00,,Wunderground v.1.15,2013-04-18 22:50:00,
2013-04-18 18:55:00,73.2,61.6,29.99,SSE,165,5.0,14.0,67,0.00,,,0.00,,Wunderground v.1.15,2013-04-18 22:55:00,
2013-04-18 19:00:00,73.1,61.5,29.99,SSE,168,5.0,5.0,67,0.00,,,0.00,,Wunderground v.1.15,2013-04-18 23:00:00,
2013-04-18 19:06:00,72.9,61.3,29.99,South,172,4.0,7.0,67,0.00,,,0.00,,Wunderground v.1.15,2013-04-18 23:06:00,
2013-04-18 19:11:00,72.8,61.2,29.99,SSE,163,4.0,4.0,67,0.00,,,0.00,,Wunderground v.1.15,2013-04-18 23:11:00,
2013-04-18 19:17:00,72.6,61.0,29.99,South,169,4.0,6.0,67,0.00,,,0.00,,Wunderground v.1.15,2013-04-18 23:17:00,
2013-04-18 19:22:00,72.5,60.9,29.99,SSE,160,3.0,3.0,67,0.00,,,0.00,,Wunderground v.1.15,2013-04-18 23:22:00,
2013-04-18 19:28:00,72.5,60.9,29.98,SSW,202,3.0,8.0,67,0.00,,,0.00,,Wunderground v.1.15,2013-04-18 23:28:00,
2013-04-18 19:33:00,72.3,60.7,29.99,SSE,148,3.0,4.0,67,0.00,,,0.00,,Wunderground v.1.15,2013-04-18 23:33:00,
2013-04-18 19:39:00,72.1,60.5,29.99,SSE,165,3.0,5.0,67,0.00,,,0.00,,Wunderground v.1.15,2013-04-18 23:39:00,
2013-04-18 19:44:00,72.0,60.0,29.99,SSE,159,3.0,11.0,66,0.00,,,0.00,,Wunderground v.1.15,2013-04-18 23:44:00,
2013-04-18 19:50:00,72.0,60.0,29.98,South,188,3.0,4.0,66,0.00,,,0.00,,Wunderground v.1.15,2013-04-18 23:50:00,
2013-04-18 19:55:00,72.0,60.0,29.98,SSE,157,3.0,5.0,66,0.00,,,0.00,,Wunderground v.1.15,2013-04-18 23:55:00,
2013-04-18 20:01:00,71.9,59.9,29.98,SSE,152,3.0,4.0,66,0.00,,,0.00,,Wunderground v.1.15,2013-04-19 00:01:00,
2013-04-18 20:06:00,71.9,59.9,29.98,SSE,155,3.0,7.0,66,0.00,,,0.00,,Wunderground v.1.15,2013-04-19 00:06:00,
2013-04-18 20:11:00,71.9,59.5,29.98,SE,141,4.0,4.0,65,0.00,,,0.00,,Wunderground v.1.15,2013-04-19 00:11:00,
2013-04-18 20:17:00,71.8,59.4,29.97,SSE,159,3.0,5.0,65,0.00,,,0.00,,Wunderground v.1.15,2013-04-19 00:17:00,
2013-04-18 20:22:00,71.7,59.7,29.97,SSE,163,3.0,9.0,66,0.00,,,0.00,,Wunderground v.1.15,2013-04-19 00:22:00,
2013-04-18 20:28:00,71.5,59.1,29.98,South,178,4.0,9.0,65,0.00,,,0.00,,Wunderground v.1.15,2013-04-19 00:28:00,
2013-04-18 20:33:00,71.4,59.0,29.98,SE,141,3.0,6.0,65,0.00,,,0.00,,Wunderground v.1.15,2013-04-19 00:33:00,
2013-04-18 20:39:00,71.3,58.9,29.97,SSE,157,3.0,7.0,65,0.00,,,0.00,,Wunderground v.1.15,2013-04-19 00:39:00,
2013-04-18 20:44:00,71.1,59.2,29.98,SSE,159,2.0,4.0,66,0.00,,,0.00,,Wunderground v.1.15,2013-04-19 00:44:00,
2013-04-18 20:50:00,70.8,58.9,29.97,SSE,150,2.0,2.0,66,0.00,,,0.00,,Wunderground v.1.15,2013-04-19 00:50:00,
2013-04-18 20:55:00,70.7,58.8,29.97,SE,146,3.0,5.0,66,0.00,,,0.00,,Wunderground v.1.15,2013-04-19 00:55:00,
2013-04-18 21:01:00,70.7,58.8,29.97,SSE,150,4.0,6.0,66,0.00,,,0.00,,Wunderground v.1.15,2013-04-19 01:01:00,
2013-04-18 21:06:00,70.6,58.7,29.97,SSE,153,4.0,6.0,66,0.00,,,0.00,,Wunderground v.1.15,2013-04-19 01:06:00,
2013-04-18 21:11:00,70.6,58.3,29.97,SE,141,4.0,9.0,65,0.00,,,0.00,,Wunderground v.1.15,2013-04-19 01:11:00,
2013-04-18 21:17:00,70.5,58.6,29.97,SE,128,5.0,9.0,66,0.00,,,0.00,,Wunderground v.1.15,2013-04-19 01:17:00,
2013-04-18 21:22:00,70.5,58.2,29.97,ESE,120,4.0,5.0,65,0.00,,,0.00,,Wunderground v.1.15,2013-04-19 01:22:00,